Time;durP1;ratioP1;P1;durP2;ratioP2;P2;SDS_P1;SDS_P2;PMS_P1;PMS_P2;Temp;Humidity;BMP_temperature;BMP_pressure;BME280_temperature;BME280_humidity;BME280_pressure;Samples;Min_cycle;Max_cycle;Signal;HPM_P1;HPM_P2
2023/01/23 00:01:25;;;;;;;;;;;16.10;50.30;;;;;;5112357;28;20194;-82
2023/01/23 00:04:10;;;;;;;;;;;16.00;50.30;;;;;;5077586;28;20029;-82
2023/01/23 00:06:49;;;;;;;;;;;16.00;50.30;;;;;;5078346;28;19912;-82
2023/01/23 00:09:23;;;;;;;;;;;16.00;50.30;;;;;;5077158;28;19916;-82
2023/01/23 00:11:49;;;;;;;;;;;15.90;50.30;;;;;;5070822;28;19908;-82
2023/01/23 00:14:27;;;;;;;;;;;15.90;50.30;;;;;;5081774;28;19939;-82
2023/01/23 00:16:58;;;;;;;;;;;15.90;50.30;;;;;;5080678;28;19912;-82
2023/01/23 00:19:49;;;;;;;;;;;15.90;50.40;;;;;;5097922;28;19908;-82
2023/01/23 00:22:18;;;;;;;;;;;15.90;50.40;;;;;;5065884;28;20209;-82
2023/01/23 00:24:43;;;;;;;;;;;15.90;50.40;;;;;;5112592;28;19922;-82
2023/01/23 00:27:09;;;;;;;;;;;15.80;50.40;;;;;;5114092;28;20261;-83
2023/01/23 00:29:35;;;;;;;;;;;15.80;50.40;;;;;;5113442;28;19983;-83
2023/01/23 00:32:00;;;;;;;;;;;15.80;50.50;;;;;;5099320;28;20309;-83
2023/01/23 00:34:26;;;;;;;;;;;15.70;50.50;;;;;;5115671;28;20199;-83
2023/01/23 00:36:51;;;;;;;;;;;15.70;50.50;;;;;;5098404;28;19908;-83
2023/01/23 00:39:18;;;;;;;;;;;15.70;50.60;;;;;;5114734;28;19908;-83
2023/01/23 00:41:45;;;;;;;;;;;15.70;50.60;;;;;;5078654;28;20210;-83
2023/01/23 00:44:10;;;;;;;;;;;15.70;50.60;;;;;;5097737;28;20275;-83
2023/01/23 00:46:36;;;;;;;;;;;15.70;50.60;;;;;;5112755;28;20020;-83
2023/01/23 00:49:03;;;;;;;;;;;15.70;50.70;;;;;;5078947;28;19908;-83
2023/01/23 00:51:28;;;;;;;;;;;15.60;50.60;;;;;;5078217;28;19912;-83
2023/01/23 00:53:54;;;;;;;;;;;15.60;50.70;;;;;;5096805;28;19938;-83
2023/01/23 00:56:20;;;;;;;;;;;15.60;50.70;;;;;;5111825;28;19961;-83
2023/01/23 00:58:47;;;;;;;;;;;15.60;50.70;;;;;;5095127;28;20308;-83
2023/01/23 01:01:14;;;;;;;;;;;15.60;50.80;;;;;;5113981;28;19908;-83
2023/01/23 01:03:40;;;;;;;;;;;15.60;50.80;;;;;;5081080;28;19915;-83
2023/01/23 01:06:05;;;;;;;;;;;15.50;50.80;;;;;;5099016;28;19916;-83
2023/01/23 01:08:31;;;;;;;;;;;15.50;50.80;;;;;;5097569;28;19998;-82
2023/01/23 01:10:57;;;;;;;;;;;15.50;50.90;;;;;;5113360;28;19981;-82
2023/01/23 01:13:23;;;;;;;;;;;15.40;50.90;;;;;;5114012;28;19908;-82
2023/01/23 01:15:50;;;;;;;;;;;15.40;50.90;;;;;;5113445;28;19908;-82
2023/01/23 01:18:16;;;;;;;;;;;15.40;50.90;;;;;;5096295;28;19908;-83
2023/01/23 01:20:42;;;;;;;;;;;15.40;51.00;;;;;;5077982;28;20031;-83
2023/01/23 01:23:07;;;;;;;;;;;15.40;51.00;;;;;;5079056;28;20058;-83
2023/01/23 01:25:33;;;;;;;;;;;15.30;51.00;;;;;;5079369;28;19909;-83
2023/01/23 01:27:59;;;;;;;;;;;15.30;51.10;;;;;;5079088;28;19912;-83
2023/01/23 01:30:25;;;;;;;;;;;15.20;51.10;;;;;;5097685;28;19909;-83
2023/01/23 01:32:52;;;;;;;;;;;15.20;51.10;;;;;;5097942;28;19909;-83
2023/01/23 01:35:17;;;;;;;;;;;15.20;51.10;;;;;;5081493;28;19916;-83
2023/01/23 01:37:43;;;;;;;;;;;15.20;51.10;;;;;;5080458;28;19919;-83
2023/01/23 01:40:12;;;;;;;;;;;15.10;51.20;;;;;;5114676;28;19961;-83
2023/01/23 01:42:42;;;;;;;;;;;15.10;51.20;;;;;;5075876;28;19908;-83
2023/01/23 01:45:28;;;;;;;;;;;15.10;51.20;;;;;;5069489;28;20216;-82
2023/01/23 01:47:53;;;;;;;;;;;15.10;51.20;;;;;;5046899;28;19912;-82
2023/01/23 01:50:19;;;;;;;;;;;15.00;51.20;;;;;;5095861;28;19920;-82
2023/01/23 01:52:44;;;;;;;;;;;15.00;51.20;;;;;;5112333;28;20404;-83
2023/01/23 01:55:10;;;;;;;;;;;15.00;51.30;;;;;;5077368;28;19908;-83
2023/01/23 01:57:39;;;;;;;;;;;14.90;51.20;;;;;;5094246;28;20342;-83
2023/01/23 02:00:07;;;;;;;;;;;14.90;51.30;;;;;;5093203;28;20074;-83
2023/01/23 02:02:36;;;;;;;;;;;14.90;51.30;;;;;;5093215;28;20252;-83
2023/01/23 02:05:04;;;;;;;;;;;14.80;51.40;;;;;;5110001;28;19908;-83
2023/01/23 02:07:49;;;;;;;;;;;14.80;51.40;;;;;;5074348;28;19921;-83
2023/01/23 02:10:15;;;;;;;;;;;14.70;51.40;;;;;;5076956;28;19912;-83
2023/01/23 02:12:44;;;;;;;;;;;14.70;51.50;;;;;;5076345;28;19969;-83
2023/01/23 02:15:10;;;;;;;;;;;14.70;51.60;;;;;;5095230;28;19930;-83
2023/01/23 02:17:37;;;;;;;;;;;14.60;51.60;;;;;;5078027;28;20261;-83
2023/01/23 02:20:16;;;;;;;;;;;14.60;51.70;;;;;;5110655;28;19908;-83
2023/01/23 02:22:54;;;;;;;;;;;14.60;51.70;;;;;;5078571;28;19904;-83
2023/01/23 02:25:26;;;;;;;;;;;14.60;51.80;;;;;;5112015;28;19908;-83
2023/01/23 02:27:52;;;;;;;;;;;14.50;51.80;;;;;;5095131;28;19944;-83
2023/01/23 02:30:19;;;;;;;;;;;14.50;51.90;;;;;;5076651;28;19982;-83
2023/01/23 02:32:45;;;;;;;;;;;14.50;51.90;;;;;;5097071;28;19955;-83
2023/01/23 02:35:14;;;;;;;;;;;14.40;51.90;;;;;;5078711;28;19951;-83
2023/01/23 02:37:41;;;;;;;;;;;14.40;52.00;;;;;;5096279;28;19930;-83
2023/01/23 02:40:07;;;;;;;;;;;14.40;52.40;;;;;;5080512;28;19908;-83
2023/01/23 02:42:33;;;;;;;;;;;14.40;52.10;;;;;;5099249;28;20014;-83
2023/01/23 02:44:59;;;;;;;;;;;14.40;52.10;;;;;;5080282;28;19951;-83
2023/01/23 02:47:24;;;;;;;;;;;14.30;52.10;;;;;;5115057;28;19984;-83
2023/01/23 02:49:50;;;;;;;;;;;14.30;52.10;;;;;;5116859;28;19939;-83
2023/01/23 02:52:16;;;;;;;;;;;14.30;52.10;;;;;;5099330;28;19923;-83
2023/01/23 02:54:41;;;;;;;;;;;14.30;52.10;;;;;;5115240;28;19908;-83
2023/01/23 02:57:07;;;;;;;;;;;14.30;52.20;;;;;;5098994;28;19915;-83
2023/01/23 03:02:17;;;;;;;;;;;14.20;52.20;;;;;;5094649;28;20123;-83
2023/01/23 03:04:43;;;;;;;;;;;14.20;52.20;;;;;;5114355;28;19916;-83
2023/01/23 03:07:08;;;;;;;;;;;14.20;52.30;;;;;;5114447;28;19912;-83
2023/01/23 03:09:34;;;;;;;;;;;14.10;52.30;;;;;;5115654;28;19943;-83
2023/01/23 03:12:00;;;;;;;;;;;14.10;52.30;;;;;;5098514;28;19908;-83
2023/01/23 03:14:26;;;;;;;;;;;14.10;52.30;;;;;;5079861;28;19947;-83
2023/01/23 03:16:52;;;;;;;;;;;14.10;52.40;;;;;;5099068;28;19943;-83
2023/01/23 03:19:22;;;;;;;;;;;14.00;52.40;;;;;;5114714;28;19908;-83
2023/01/23 03:21:48;;;;;;;;;;;14.00;52.40;;;;;;5098366;28;19969;-83
2023/01/23 03:24:14;;;;;;;;;;;14.00;52.50;;;;;;5098484;28;19912;-82
2023/01/23 03:26:41;;;;;;;;;;;14.00;52.50;;;;;;5100271;28;19923;-82
2023/01/23 03:31:51;;;;;;;;;;;14.00;52.60;;;;;;5099425;28;19950;-82
2023/01/23 03:34:17;;;;;;;;;;;14.00;52.60;;;;;;5082844;28;19928;-82
2023/01/23 03:36:43;;;;;;;;;;;14.00;52.50;;;;;;5116333;28;19996;-82
2023/01/23 03:41:53;;;;;;;;;;;14.00;52.40;;;;;;5099038;28;19919;-82
2023/01/23 03:44:19;;;;;;;;;;;14.00;52.40;;;;;;5080885;28;19908;-82
2023/01/23 03:46:49;;;;;;;;;;;14.00;52.40;;;;;;5080428;28;19963;-82
2023/01/23 03:49:15;;;;;;;;;;;14.00;52.50;;;;;;5081301;28;19911;-82
2023/01/23 03:51:41;;;;;;;;;;;13.90;52.50;;;;;;5080277;28;19908;-82
2023/01/23 03:54:06;;;;;;;;;;;13.90;52.50;;;;;;5114289;28;19912;-82
2023/01/23 03:56:32;;;;;;;;;;;13.90;52.50;;;;;;5113263;28;20053;-82
2023/01/23 03:58:57;;;;;;;;;;;13.90;52.50;;;;;;5079039;28;19908;-82
2023/01/23 04:01:24;;;;;;;;;;;13.80;52.50;;;;;;5112462;28;20245;-82
2023/01/23 04:03:49;;;;;;;;;;;13.80;52.60;;;;;;5078800;28;19904;-82
2023/01/23 04:06:15;;;;;;;;;;;13.80;52.60;;;;;;5111107;28;19966;-82
2023/01/23 04:08:40;;;;;;;;;;;13.80;52.70;;;;;;5096059;28;19918;-82
2023/01/23 04:11:08;;;;;;;;;;;14.50;52.00;;;;;;5094013;28;20015;-82
2023/01/23 04:13:33;;;;;;;;;;;15.20;51.00;;;;;;5078790;28;19912;-82
2023/01/23 04:15:59;;;;;;;;;;;15.50;50.30;;;;;;5111541;28;19969;-82
2023/01/23 04:18:24;;;;;;;;;;;15.80;50.00;;;;;;5080802;28;19941;-82
2023/01/23 04:20:50;;;;;;;;;;;16.00;49.60;;;;;;5114314;28;19919;-82
2023/01/23 04:23:16;;;;;;;;;;;16.20;49.30;;;;;;5115916;28;20193;-82
2023/01/23 04:25:42;;;;;;;;;;;16.40;49.00;;;;;;5098316;28;20337;-82
2023/01/23 04:28:07;;;;;;;;;;;16.70;48.70;;;;;;5115751;28;20257;-82
2023/01/23 04:30:33;;;;;;;;;;;16.90;48.40;;;;;;5114068;28;20069;-82
2023/01/23 04:32:58;;;;;;;;;;;17.20;48.00;;;;;;5110331;28;20375;-82
2023/01/23 04:35:24;;;;;;;;;;;17.40;47.80;;;;;;5096653;28;20079;-82
2023/01/23 04:37:49;;;;;;;;;;;17.50;47.60;;;;;;5112720;28;19908;-82
2023/01/23 04:40:18;;;;;;;;;;;17.60;47.50;;;;;;5077669;28;20299;-82
2023/01/23 04:42:43;;;;;;;;;;;17.80;47.30;;;;;;5111280;28;20154;-82
2023/01/23 04:45:09;;;;;;;;;;;18.00;47.10;;;;;;5109757;28;19938;-82
2023/01/23 04:47:35;;;;;;;;;;;18.10;47.00;;;;;;5110068;28;20014;-82
2023/01/23 04:50:01;;;;;;;;;;;18.10;46.90;;;;;;5076599;28;19908;-83
2023/01/23 04:52:27;;;;;;;;;;;18.20;46.90;;;;;;5110632;28;20180;-82
2023/01/23 04:54:52;;;;;;;;;;;18.30;46.80;;;;;;5110489;28;19991;-82
2023/01/23 04:57:18;;;;;;;;;;;18.40;46.70;;;;;;5091986;28;19985;-82
2023/01/23 04:59:44;;;;;;;;;;;18.50;46.50;;;;;;5093550;28;20077;-82
2023/01/23 05:02:10;;;;;;;;;;;18.60;46.50;;;;;;5109522;28;20319;-82
2023/01/23 05:04:35;;;;;;;;;;;18.60;46.40;;;;;;5109862;28;19908;-82
2023/01/23 05:07:01;;;;;;;;;;;18.60;46.40;;;;;;5110477;28;19919;-82
2023/01/23 05:09:26;;;;;;;;;;;18.70;46.30;;;;;;5093492;28;19908;-82
2023/01/23 05:11:52;;;;;;;;;;;18.80;46.20;;;;;;5108396;28;19938;-82
2023/01/23 05:14:17;;;;;;;;;;;18.90;46.10;;;;;;5092893;28;19908;-82
2023/01/23 05:16:43;;;;;;;;;;;18.90;46.00;;;;;;5107895;28;19920;-82
2023/01/23 05:19:08;;;;;;;;;;;18.90;46.00;;;;;;5106660;28;20240;-82
2023/01/23 05:21:34;;;;;;;;;;;19.00;46.00;;;;;;5094425;28;19908;-81
2023/01/23 05:24:00;;;;;;;;;;;19.00;46.00;;;;;;5095048;28;19908;-81
2023/01/23 05:26:25;;;;;;;;;;;19.00;45.90;;;;;;5075214;28;20067;-81
2023/01/23 05:28:51;;;;;;;;;;;19.10;45.90;;;;;;5109780;28;20152;-81
2023/01/23 05:31:17;;;;;;;;;;;19.10;45.80;;;;;;5094932;28;19908;-80
2023/01/23 05:33:42;;;;;;;;;;;19.20;45.80;;;;;;5077847;28;19930;-80
2023/01/23 05:36:08;;;;;;;;;;;19.20;45.70;;;;;;5094963;28;19908;-80
2023/01/23 05:38:33;;;;;;;;;;;19.20;45.80;;;;;;5074060;28;19908;-80
2023/01/23 05:40:59;;;;;;;;;;;19.10;45.90;;;;;;5108103;28;20181;-80
2023/01/23 05:43:25;;;;;;;;;;;19.10;45.90;;;;;;5074990;28;20212;-80
2023/01/23 05:45:50;;;;;;;;;;;19.00;46.00;;;;;;5107564;28;19908;-80
2023/01/23 05:48:16;;;;;;;;;;;18.90;46.00;;;;;;5107912;28;20011;-80
2023/01/23 05:50:42;;;;;;;;;;;18.90;46.10;;;;;;5107283;28;19908;-80
2023/01/23 05:53:07;;;;;;;;;;;18.80;46.10;;;;;;5075131;28;20273;-80
2023/01/23 05:55:33;;;;;;;;;;;18.80;46.50;;;;;;5072922;28;19923;-80
2023/01/23 05:57:58;;;;;;;;;;;18.70;46.20;;;;;;5107470;28;19908;-80
2023/01/23 06:00:24;;;;;;;;;;;18.60;46.20;;;;;;5107496;28;20319;-80
2023/01/23 06:02:50;;;;;;;;;;;18.60;46.30;;;;;;5091351;28;19916;-80
2023/01/23 06:05:15;;;;;;;;;;;18.50;46.30;;;;;;5072331;28;19908;-80
2023/01/23 06:07:41;;;;;;;;;;;18.50;46.50;;;;;;5108632;28;20012;-80
2023/01/23 06:10:07;;;;;;;;;;;18.40;46.40;;;;;;5092084;28;19908;-80
2023/01/23 06:12:32;;;;;;;;;;;18.40;46.40;;;;;;5073018;28;19931;-83
2023/01/23 06:14:58;;;;;;;;;;;18.30;46.40;;;;;;5089102;28;20205;-82
2023/01/23 06:17:23;;;;;;;;;;;18.30;46.40;;;;;;5107211;28;19912;-82
2023/01/23 06:19:50;;;;;;;;;;;18.30;46.40;;;;;;5107448;28;19908;-81
2023/01/23 06:22:16;;;;;;;;;;;18.30;46.30;;;;;;5106626;28;19946;-81
2023/01/23 06:24:41;;;;;;;;;;;18.40;46.20;;;;;;5106211;28;19955;-81
2023/01/23 06:27:07;;;;;;;;;;;18.40;46.20;;;;;;5107343;28;19969;-81
2023/01/23 06:29:36;;;;;;;;;;;18.30;46.10;;;;;;5105640;28;19908;-81
2023/01/23 06:32:02;;;;;;;;;;;18.40;46.20;;;;;;5071079;28;19923;-81
2023/01/23 06:34:28;;;;;;;;;;;18.40;46.50;;;;;;5085690;28;20327;-82
2023/01/23 06:36:54;;;;;;;;;;;18.40;46.00;;;;;;5103362;28;19966;-82
2023/01/23 06:39:19;;;;;;;;;;;18.40;46.00;;;;;;5104518;28;19944;-81
2023/01/23 06:41:45;;;;;;;;;;;18.50;45.90;;;;;;5089566;28;20455;-81
2023/01/23 06:44:10;;;;;;;;;;;18.50;45.90;;;;;;5106571;28;19918;-82
2023/01/23 06:46:37;;;;;;;;;;;18.60;45.80;;;;;;5104202;28;19913;-82
2023/01/23 06:49:04;;;;;;;;;;;18.60;45.80;;;;;;5087883;28;19912;-82
2023/01/23 06:51:29;;;;;;;;;;;18.60;45.80;;;;;;5070360;28;19911;-82
2023/01/23 06:53:55;;;;;;;;;;;18.70;45.80;;;;;;5068678;28;19912;-81
2023/01/23 06:56:21;;;;;;;;;;;18.70;45.70;;;;;;5103350;28;20274;-81
2023/01/23 06:58:47;;;;;;;;;;;18.70;45.70;;;;;;5104401;28;20191;-82
2023/01/23 07:01:14;;;;;;;;;;;18.80;45.70;;;;;;5105926;28;19908;-82
2023/01/23 07:03:43;;;;;;;;;;;18.70;45.70;;;;;;5105328;28;20457;-81
2023/01/23 07:06:09;;;;;;;;;;;18.70;45.70;;;;;;5087228;28;19955;-83
2023/01/23 07:08:35;;;;;;;;;;;18.80;45.80;;;;;;5105736;28;19912;-83
2023/01/23 07:11:01;;;;;;;;;;;18.90;45.90;;;;;;5107200;28;19912;-82
2023/01/23 07:13:27;;;;;;;;;;;18.80;45.80;;;;;;5108984;28;20217;-85
2023/01/23 07:15:52;;;;;;;;;;;18.80;45.80;;;;;;5109642;28;19908;-82
2023/01/23 07:18:18;;;;;;;;;;;18.90;45.90;;;;;;5107866;28;20172;-82
2023/01/23 07:20:44;;;;;;;;;;;18.80;46.00;;;;;;5109457;28;19908;-82
2023/01/23 07:23:10;;;;;;;;;;;18.80;46.10;;;;;;5107682;28;19980;-83
2023/01/23 07:25:35;;;;;;;;;;;18.80;46.20;;;;;;5105590;28;19912;-83
2023/01/23 07:28:01;;;;;;;;;;;18.80;46.30;;;;;;5105570;28;20288;-83
2023/01/23 07:30:26;;;;;;;;;;;18.80;46.40;;;;;;5087365;28;20231;-83
2023/01/23 07:32:52;;;;;;;;;;;18.80;46.40;;;;;;5105775;28;20018;-83
2023/01/23 07:35:18;;;;;;;;;;;18.70;46.40;;;;;;5104553;28;19926;-82
2023/01/23 07:37:43;;;;;;;;;;;18.70;46.80;;;;;;5106424;28;19916;-82
2023/01/23 07:40:09;;;;;;;;;;;18.70;46.40;;;;;;5114931;28;19961;-83
2023/01/23 07:42:35;;;;;;;;;;;18.70;46.30;;;;;;5077996;28;19938;-82
2023/01/23 07:45:00;;;;;;;;;;;18.70;46.30;;;;;;5112420;28;20296;-83
2023/01/23 07:47:26;;;;;;;;;;;18.70;46.30;;;;;;5113187;28;19912;-83
2023/01/23 07:49:51;;;;;;;;;;;18.70;46.40;;;;;;5112234;28;19907;-82
2023/01/23 07:52:17;;;;;;;;;;;18.70;46.40;;;;;;5088219;28;20027;-82
2023/01/23 07:54:43;;;;;;;;;;;18.70;46.40;;;;;;5106274;28;20104;-82
2023/01/23 07:57:08;;;;;;;;;;;18.70;46.40;;;;;;5108158;28;19919;-82
2023/01/23 07:59:34;;;;;;;;;;;18.60;46.40;;;;;;5091925;28;19908;-82
2023/01/23 08:02:00;;;;;;;;;;;18.60;46.40;;;;;;5090508;28;20006;-83
2023/01/23 08:04:25;;;;;;;;;;;18.60;46.50;;;;;;5105064;28;20260;-83
2023/01/23 08:06:51;;;;;;;;;;;18.60;46.50;;;;;;5100538;28;19917;-83
2023/01/23 08:09:16;;;;;;;;;;;18.60;46.50;;;;;;5091868;28;19908;-83
2023/01/23 08:11:42;;;;;;;;;;;18.60;46.90;;;;;;5070648;28;19908;-83
2023/01/23 08:14:07;;;;;;;;;;;18.60;46.50;;;;;;5053843;28;20060;-83
2023/01/23 08:16:33;;;;;;;;;;;18.60;46.50;;;;;;5052408;28;20162;-82
2023/01/23 08:18:59;;;;;;;;;;;18.60;46.60;;;;;;5052750;28;19939;-83
2023/01/23 08:21:24;;;;;;;;;;;18.60;46.60;;;;;;5054037;28;19972;-83
2023/01/23 08:23:50;;;;;;;;;;;18.60;46.50;;;;;;5070241;28;20085;-83
2023/01/23 08:26:16;;;;;;;;;;;18.60;46.50;;;;;;5053155;28;19970;-83
2023/01/23 08:28:42;;;;;;;;;;;18.60;46.50;;;;;;5051470;28;19908;-83
2023/01/23 08:31:08;;;;;;;;;;;18.60;46.60;;;;;;5069207;28;20386;-82
2023/01/23 08:33:35;;;;;;;;;;;18.60;46.60;;;;;;5050418;28;19972;-82
2023/01/23 08:36:00;;;;;;;;;;;18.60;46.60;;;;;;5050107;28;19908;-82
2023/01/23 08:38:26;;;;;;;;;;;18.60;46.60;;;;;;5050913;28;19974;-82
2023/01/23 08:40:52;;;;;;;;;;;18.60;46.50;;;;;;5049375;28;19909;-82
2023/01/23 08:43:18;;;;;;;;;;;18.60;46.60;;;;;;5053547;28;19908;-82
2023/01/23 08:45:48;;;;;;;;;;;18.60;46.50;;;;;;5069942;28;19908;-82
2023/01/23 08:48:13;;;;;;;;;;;18.60;46.60;;;;;;5053567;28;19989;-82
2023/01/23 08:50:39;;;;;;;;;;;18.60;46.50;;;;;;5053208;28;20344;-82
2023/01/23 08:53:05;;;;;;;;;;;18.60;46.50;;;;;;5053250;28;20328;-82
2023/01/23 08:55:31;;;;;;;;;;;18.60;46.40;;;;;;5054418;28;19912;-82
2023/01/23 08:57:58;;;;;;;;;;;18.60;46.40;;;;;;5070974;28;20305;-82
2023/01/23 09:00:24;;;;;;;;;;;18.60;46.40;;;;;;5051398;28;19939;-82
2023/01/23 09:02:50;;;;;;;;;;;18.50;46.40;;;;;;5069935;28;19912;-82
2023/01/23 09:05:16;;;;;;;;;;;18.40;46.50;;;;;;5057701;28;19952;-82
2023/01/23 09:07:42;;;;;;;;;;;18.30;46.70;;;;;;5058308;28;19960;-82
2023/01/23 09:10:08;;;;;;;;;;;18.20;46.80;;;;;;5057068;28;19908;-82
2023/01/23 09:12:34;;;;;;;;;;;18.00;47.10;;;;;;5057121;28;19932;-81
2023/01/23 09:14:59;;;;;;;;;;;17.90;47.30;;;;;;5058344;28;20221;-81
2023/01/23 09:17:25;;;;;;;;;;;17.80;47.30;;;;;;5052554;28;20274;-81
2023/01/23 09:19:51;;;;;;;;;;;17.90;47.20;;;;;;5050209;28;19908;-81
2023/01/23 09:22:17;;;;;;;;;;;18.10;47.10;;;;;;5073810;28;19931;-81
2023/01/23 09:24:43;;;;;;;;;;;18.30;46.80;;;;;;5057741;28;20363;-81
2023/01/23 09:27:08;;;;;;;;;;;18.50;46.60;;;;;;5056902;28;19912;-81
2023/01/23 09:29:37;;;;;;;;;;;18.60;46.40;;;;;;5058098;28;19939;-81
2023/01/23 09:32:03;;;;;;;;;;;18.80;46.20;;;;;;5057653;28;19973;-81
2023/01/23 09:34:29;;;;;;;;;;;19.00;46.00;;;;;;5059659;28;19924;-82
2023/01/23 09:36:54;;;;;;;;;;;19.10;45.80;;;;;;5060222;28;20077;-82
2023/01/23 09:39:20;;;;;;;;;;;19.10;45.80;;;;;;5052319;28;19908;-82
2023/01/23 09:41:47;;;;;;;;;;;19.10;45.70;;;;;;5056248;28;20062;-83
2023/01/23 09:44:18;;;;;;;;;;;19.10;45.70;;;;;;5068757;28;20360;-82
2023/01/23 09:46:52;;;;;;;;;;;19.20;45.60;;;;;;5083186;28;20169;-82
2023/01/23 09:49:23;;;;;;;;;;;19.20;45.60;;;;;;5054073;28;19908;-82
2023/01/23 09:51:53;;;;;;;;;;;19.30;45.60;;;;;;5056474;28;20334;-82
2023/01/23 09:54:37;;;;;;;;;;;19.30;45.50;;;;;;5058469;28;19920;-82
2023/01/23 09:57:05;;;;;;;;;;;19.20;45.50;;;;;;5078371;28;19908;-82
2023/01/23 09:59:30;;;;;;;;;;;19.20;45.50;;;;;;5056292;28;19908;-82
2023/01/23 10:01:56;;;;;;;;;;;19.20;45.60;;;;;;5081627;28;19916;-82
2023/01/23 10:04:22;;;;;;;;;;;19.10;45.60;;;;;;5068103;28;20203;-82
2023/01/23 10:07:00;;;;;;;;;;;19.10;45.60;;;;;;5050330;28;19971;-82
2023/01/23 10:09:25;;;;;;;;;;;19.10;45.70;;;;;;5082561;28;20086;-82
2023/01/23 10:11:53;;;;;;;;;;;19.00;45.60;;;;;;5072013;28;19916;-83
2023/01/23 10:14:21;;;;;;;;;;;18.90;45.70;;;;;;5084335;28;19920;-82
2023/01/23 10:16:47;;;;;;;;;;;18.90;45.70;;;;;;5091515;28;20193;-81
2023/01/23 10:19:34;;;;;;;;;;;18.80;45.70;;;;;;5094126;28;19908;-82
2023/01/23 10:22:10;;;;;;;;;;;18.70;45.80;;;;;;5056245;28;20015;-81
2023/01/23 10:24:36;;;;;;;;;;;18.70;45.90;;;;;;5057431;28;19916;-81
2023/01/23 10:27:10;;;;;;;;;;;18.60;45.90;;;;;;5075405;28;19923;-81
2023/01/23 10:29:37;;;;;;;;;;;18.60;46.00;;;;;;5055210;28;19959;-81
2023/01/23 10:32:12;;;;;;;;;;;18.50;46.00;;;;;;5071551;28;19939;-81
2023/01/23 10:34:58;;;;;;;;;;;18.50;46.10;;;;;;5050275;28;19916;-81
2023/01/23 10:37:36;;;;;;;;;;;18.50;46.10;;;;;;5051477;28;19908;-81
2023/01/23 10:40:06;;;;;;;;;;;18.40;46.10;;;;;;5082999;28;19909;-82
2023/01/23 10:42:32;;;;;;;;;;;18.40;46.20;;;;;;5053949;28;19915;-82
2023/01/23 10:44:57;;;;;;;;;;;18.30;46.10;;;;;;5052647;28;20277;-82
2023/01/23 10:47:28;;;;;;;;;;;18.30;46.20;;;;;;5049301;28;19922;-82
2023/01/23 10:49:53;;;;;;;;;;;18.40;46.10;;;;;;5055683;28;20279;-82
2023/01/23 10:52:36;;;;;;;;;;;18.50;46.10;;;;;;5048731;28;20007;-82
2023/01/23 10:55:23;;;;;;;;;;;18.60;46.00;;;;;;5053417;28;19915;-81
2023/01/23 10:57:51;;;;;;;;;;;18.60;45.90;;;;;;5058785;28;19912;-81
2023/01/23 11:00:17;;;;;;;;;;;18.70;45.80;;;;;;5071423;28;19908;-81
2023/01/23 11:02:42;;;;;;;;;;;18.80;45.80;;;;;;5088791;28;19915;-82
2023/01/23 11:05:26;;;;;;;;;;;18.80;45.70;;;;;;5072029;28;19920;-82
2023/01/23 11:07:54;;;;;;;;;;;18.90;45.70;;;;;;5056956;28;20313;-82
2023/01/23 11:10:22;;;;;;;;;;;18.90;45.60;;;;;;5058145;28;20044;-81
2023/01/23 11:12:55;;;;;;;;;;;19.00;45.50;;;;;;5074850;28;19920;-81
2023/01/23 11:15:21;;;;;;;;;;;19.00;45.60;;;;;;5075187;28;19932;-81
2023/01/23 11:17:47;;;;;;;;;;;19.00;45.60;;;;;;5071223;28;19944;-80
2023/01/23 11:20:24;;;;;;;;;;;19.00;45.50;;;;;;5055572;28;19908;-81
2023/01/23 11:23:05;;;;;;;;;;;19.00;45.50;;;;;;5059461;28;19908;-81
2023/01/23 11:25:50;;;;;;;;;;;19.00;45.40;;;;;;5092979;28;19909;-80
2023/01/23 11:28:19;;;;;;;;;;;19.00;45.60;;;;;;5063157;28;19916;-80
2023/01/23 11:30:53;;;;;;;;;;;19.00;45.60;;;;;;5094024;28;19991;-80
2023/01/23 11:33:25;;;;;;;;;;;19.00;45.60;;;;;;5060637;28;19927;-81
2023/01/23 11:35:57;;;;;;;;;;;19.00;45.70;;;;;;5080616;28;19980;-81
2023/01/23 11:38:25;;;;;;;;;;;19.00;45.70;;;;;;5096576;28;20186;-80
2023/01/23 11:40:50;;;;;;;;;;;19.00;45.90;;;;;;5058101;28;19981;-80
2023/01/23 11:43:16;;;;;;;;;;;19.00;45.90;;;;;;5075529;28;19912;-80
2023/01/23 11:45:48;;;;;;;;;;;18.90;45.90;;;;;;5060317;28;19909;-80
2023/01/23 11:48:32;;;;;;;;;;;18.80;46.00;;;;;;5077407;28;19912;-80
2023/01/23 11:51:21;;;;;;;;;;;18.80;46.00;;;;;;5063370;28;19908;-80
2023/01/23 11:54:02;;;;;;;;;;;18.80;46.00;;;;;;5052166;28;19973;-80
2023/01/23 11:56:42;;;;;;;;;;;18.80;46.00;;;;;;5085242;28;20026;-80
2023/01/23 11:59:08;;;;;;;;;;;18.80;46.00;;;;;;5077621;28;20266;-80
2023/01/23 12:01:40;;;;;;;;;;;18.70;46.00;;;;;;5076785;28;19969;-81
2023/01/23 12:04:18;;;;;;;;;;;18.70;46.10;;;;;;5095453;28;20463;-80
2023/01/23 12:06:44;;;;;;;;;;;18.60;46.60;;;;;;5080127;28;19912;-80
2023/01/23 12:09:12;;;;;;;;;;;18.40;46.20;;;;;;5096003;28;19908;-80
2023/01/23 12:11:49;;;;;;;;;;;18.30;46.30;;;;;;5078752;28;19950;-80
2023/01/23 12:14:18;;;;;;;;;;;18.20;46.50;;;;;;5074121;28;19908;-81
2023/01/23 12:17:00;;;;;;;;;;;18.10;46.70;;;;;;5066775;28;19947;-80
2023/01/23 12:19:32;;;;;;;;;;;17.90;46.90;;;;;;5076772;28;19912;-80
2023/01/23 12:22:00;;;;;;;;;;;17.90;47.00;;;;;;5075706;28;19947;-81
2023/01/23 12:24:44;;;;;;;;;;;18.00;46.90;;;;;;5070069;28;19920;-82
2023/01/23 12:27:27;;;;;;;;;;;18.20;46.70;;;;;;5071061;28;19912;-81
2023/01/23 12:30:05;;;;;;;;;;;18.30;46.80;;;;;;5071625;28;19915;-81
2023/01/23 12:32:31;;;;;;;;;;;18.40;46.60;;;;;;5089203;28;20209;-81
2023/01/23 12:34:57;;;;;;;;;;;18.60;46.40;;;;;;5077700;28;19916;-81
2023/01/23 12:37:35;;;;;;;;;;;18.70;46.10;;;;;;5070059;28;20372;-81
2023/01/23 12:40:21;;;;;;;;;;;18.90;46.00;;;;;;5085500;28;19908;-82
2023/01/23 12:42:50;;;;;;;;;;;19.00;45.80;;;;;;5068948;28;20185;-82
2023/01/23 12:45:19;;;;;;;;;;;19.10;45.70;;;;;;5069388;28;19909;-82
2023/01/23 12:47:50;;;;;;;;;;;19.20;45.60;;;;;;5084769;28;20369;-81
2023/01/23 12:50:27;;;;;;;;;;;19.20;45.60;;;;;;5087315;28;19908;-82
2023/01/23 12:53:05;;;;;;;;;;;19.20;45.60;;;;;;5070083;28;19908;-82
2023/01/23 12:56:01;;;;;;;;;;;19.20;45.50;;;;;;5071002;28;20258;-81
2023/01/23 12:58:28;;;;;;;;;;;19.20;45.40;;;;;;5047319;28;19961;-81
2023/01/23 13:01:00;;;;;;;;;;;19.20;45.40;;;;;;5066162;28;19908;-81
2023/01/23 13:03:37;;;;;;;;;;;19.20;45.90;;;;;;5066403;28;20213;-81
2023/01/23 13:06:09;;;;;;;;;;;19.10;45.50;;;;;;5067243;28;20002;-81
2023/01/23 13:11:40;;;;;;;;;;;19.00;45.60;;;;;;5085412;28;20015;-81
2023/01/23 13:14:17;;;;;;;;;;;18.90;45.70;;;;;;5085749;28;19908;-81
2023/01/23 13:16:47;;;;;;;;;;;18.80;45.80;;;;;;5068667;28;19918;-81
2023/01/23 13:22:29;;;;;;;;;;;18.70;46.00;;;;;;5085649;28;19961;-81
2023/01/23 13:25:16;;;;;;;;;;;18.60;46.10;;;;;;5068500;28;19908;-81
2023/01/23 13:27:50;;;;;;;;;;;18.50;46.20;;;;;;5069491;28;19994;-81
2023/01/23 13:30:25;;;;;;;;;;;18.50;46.30;;;;;;5087013;28;19921;-81
2023/01/23 13:32:55;;;;;;;;;;;18.50;46.70;;;;;;5068779;28;20177;-81
2023/01/23 13:35:39;;;;;;;;;;;18.40;46.10;;;;;;5066673;28;20480;-81
2023/01/23 13:38:29;;;;;;;;;;;18.50;46.10;;;;;;5065617;28;19912;-81
2023/01/23 13:41:03;;;;;;;;;;;18.40;46.10;;;;;;5068824;28;19913;-81
2023/01/23 13:43:41;;;;;;;;;;;18.30;46.30;;;;;;5083956;28;19923;-82
2023/01/23 13:46:27;;;;;;;;;;;18.20;46.50;;;;;;5086202;28;19915;-81
2023/01/23 13:51:44;;;;;;;;;;;17.90;46.80;;;;;;5085382;28;19919;-82
2023/01/23 13:56:59;;;;;;;;;;;17.50;47.10;;;;;;5083780;28;19968;-81
2023/01/23 13:59:27;;;;;;;;;;;17.40;47.30;;;;;;5087683;28;19908;-82
2023/01/23 14:05:14;;;;;;;;;;;17.20;47.60;;;;;;5081625;28;20200;-82
2023/01/23 14:07:48;;;;;;;;;;;17.30;47.70;;;;;;5069536;28;20185;-82
2023/01/23 14:10:28;;;;;;;;;;;17.50;47.50;;;;;;5069870;28;20203;-82
2023/01/23 14:13:05;;;;;;;;;;;17.70;47.20;;;;;;5066535;28;20289;-82
2023/01/23 14:18:17;;;;;;;;;;;18.20;46.80;;;;;;5085897;28;20301;-82
2023/01/23 14:20:43;;;;;;;;;;;18.40;46.50;;;;;;5070249;28;20011;-82
2023/01/23 14:23:27;;;;;;;;;;;18.70;46.30;;;;;;5066577;28;20057;-82
2023/01/23 14:25:52;;;;;;;;;;;18.80;46.10;;;;;;5068405;28;19954;-83
2023/01/23 14:28:18;;;;;;;;;;;18.90;46.00;;;;;;5068123;28;19955;-82
2023/01/23 14:31:03;;;;;;;;;;;19.00;45.90;;;;;;5066790;28;19916;-82
2023/01/23 14:33:38;;;;;;;;;;;19.10;45.80;;;;;;5075595;28;19912;-82
2023/01/23 14:36:04;;;;;;;;;;;19.20;45.70;;;;;;5069405;28;20018;-82
2023/01/23 14:38:32;;;;;;;;;;;19.30;45.50;;;;;;5087063;28;20026;-82
2023/01/23 14:41:01;;;;;;;;;;;19.40;45.40;;;;;;5067883;28;19909;-82
2023/01/23 14:43:28;;;;;;;;;;;19.40;45.30;;;;;;5072011;28;19912;-82
2023/01/23 14:45:59;;;;;;;;;;;19.40;45.30;;;;;;5070612;28;20024;-82
2023/01/23 14:48:25;;;;;;;;;;;19.40;45.30;;;;;;5069496;28;19912;-83
2023/01/23 14:51:05;;;;;;;;;;;19.30;45.30;;;;;;5072599;28;20318;-81